sensor_id;sensor_type;location;lat;lon;timestamp;pressure;altitude;pressure_sealevel;temperature;humidity
63493;BME280;49638;47.526;10.028;2023-06-01T00:02:52;91754.56;;;13.21;66.72
63493;BME280;49638;47.526;10.028;2023-06-01T00:05:53;91756.94;;;13.23;66.87
63493;BME280;49638;47.526;10.028;2023-06-01T00:08:54;91751.63;;;13.23;66.82
63493;BME280;49638;47.526;10.028;2023-06-01T00:11:54;91756.16;;;13.22;66.80
63493;BME280;49638;47.526;10.028;2023-06-01T00:14:54;91751.63;;;13.23;67.27
63493;BME280;49638;47.526;10.028;2023-06-01T00:17:55;91760.09;;;13.15;67.41
63493;BME280;49638;47.526;10.028;2023-06-01T00:20:56;91761.63;;;13.11;67.99
63493;BME280;49638;47.526;10.028;2023-06-01T00:23:56;91753.16;;;13.09;67.99
63493;BME280;49638;47.526;10.028;2023-06-01T00:26:56;91756.03;;;13.02;68.18
63493;BME280;49638;47.526;10.028;2023-06-01T00:29:56;91747.75;;;12.93;68.48
63493;BME280;49638;47.526;10.028;2023-06-01T00:32:57;91753.78;;;12.84;68.76
63493;BME280;49638;47.526;10.028;2023-06-01T00:35:57;91752.97;;;12.78;69.07
63493;BME280;49638;47.526;10.028;2023-06-01T00:38:57;91750.84;;;12.80;69.09
63493;BME280;49638;47.526;10.028;2023-06-01T00:42:02;91758.56;;;12.82;69.09
63493;BME280;49638;47.526;10.028;2023-06-01T00:45:03;91755.34;;;12.74;69.47
63493;BME280;49638;47.526;10.028;2023-06-01T00:48:04;91751.63;;;12.75;69.34
63493;BME280;49638;47.526;10.028;2023-06-01T00:51:04;91745.53;;;12.75;69.39
63493;BME280;49638;47.526;10.028;2023-06-01T00:54:04;91742.09;;;12.79;69.37
63493;BME280;49638;47.526;10.028;2023-06-01T00:57:05;91746.38;;;12.81;69.38
63493;BME280;49638;47.526;10.028;2023-06-01T01:00:07;91747.16;;;12.86;69.40
63493;BME280;49638;47.526;10.028;2023-06-01T01:03:10;91741.59;;;12.83;69.50
63493;BME280;49638;47.526;10.028;2023-06-01T01:09:56;91749.31;;;12.84;72.51
63493;BME280;49638;47.526;10.028;2023-06-01T01:26:01;91751.34;;;12.77;73.30
63493;BME280;49638;47.526;10.028;2023-06-01T01:29:14;91751.59;;;12.70;72.69
63493;BME280;49638;47.526;10.028;2023-06-01T01:32:16;91753.13;;;12.66;71.07
63493;BME280;49638;47.526;10.028;2023-06-01T01:35:17;91754.19;;;12.65;71.28
63493;BME280;49638;47.526;10.028;2023-06-01T01:38:17;91741.44;;;12.62;71.67
63493;BME280;49638;47.526;10.028;2023-06-01T01:41:19;91738.03;;;12.67;71.43
63493;BME280;49638;47.526;10.028;2023-06-01T01:44:19;91734.56;;;12.66;71.17
63493;BME280;49638;47.526;10.028;2023-06-01T01:47:34;91745.75;;;12.68;74.44
63493;BME280;49638;47.526;10.028;2023-06-01T01:50:41;91745.19;;;12.66;71.39
63493;BME280;49638;47.526;10.028;2023-06-01T01:53:48;91746.81;;;12.67;71.36
63493;BME280;49638;47.526;10.028;2023-06-01T01:56:53;91738.34;;;12.70;71.73
63493;BME280;49638;47.526;10.028;2023-06-01T01:59:56;91743.88;;;12.69;71.61
63493;BME280;49638;47.526;10.028;2023-06-01T02:02:57;91728.69;;;12.59;71.72
63493;BME280;49638;47.526;10.028;2023-06-01T02:05:57;91734.56;;;12.61;71.98
63493;BME280;49638;47.526;10.028;2023-06-01T02:08:57;91711.69;;;12.50;72.16
63493;BME280;49638;47.526;10.028;2023-06-01T02:11:58;91716.44;;;12.53;72.21
63493;BME280;49638;47.526;10.028;2023-06-01T02:14:58;91730.03;;;12.62;72.30
63493;BME280;49638;47.526;10.028;2023-06-01T02:17:58;91725.81;;;12.61;72.41
63493;BME280;49638;47.526;10.028;2023-06-01T02:20:59;91719.94;;;12.59;72.42
63493;BME280;49638;47.526;10.028;2023-06-01T02:23:59;91715.72;;;12.58;72.14
63493;BME280;49638;47.526;10.028;2023-06-01T02:27:04;91713.06;;;12.58;71.96
63493;BME280;49638;47.526;10.028;2023-06-01T02:30:05;91714.44;;;12.65;71.81
63493;BME280;49638;47.526;10.028;2023-06-01T02:33:06;91721.31;;;12.66;71.59
63493;BME280;49638;47.526;10.028;2023-06-01T02:36:06;91709.09;;;12.60;71.78
63493;BME280;49638;47.526;10.028;2023-06-01T02:39:07;91711.78;;;12.65;72.25
63493;BME280;49638;47.526;10.028;2023-06-01T02:42:07;91722.66;;;12.69;72.43
63493;BME280;49638;47.526;10.028;2023-06-01T02:45:08;91712.03;;;12.64;72.83
63493;BME280;49638;47.526;10.028;2023-06-01T02:48:09;91718.88;;;12.60;72.94
63493;BME280;49638;47.526;10.028;2023-06-01T02:51:09;91718.56;;;12.51;73.14
63493;BME280;49638;47.526;10.028;2023-06-01T02:54:10;91726.53;;;12.51;73.41
63493;BME280;49638;47.526;10.028;2023-06-01T02:57:10;91714.78;;;12.42;73.36
63493;BME280;49638;47.526;10.028;2023-06-01T03:00:11;91718.78;;;12.44;72.92
63493;BME280;49638;47.526;10.028;2023-06-01T03:03:15;91715.28;;;12.39;73.19
63493;BME280;49638;47.526;10.028;2023-06-01T03:06:17;91717.66;;;12.35;73.30
63493;BME280;49638;47.526;10.028;2023-06-01T03:09:21;91711.47;;;12.24;73.86
63493;BME280;49638;47.526;10.028;2023-06-01T03:12:21;91720.28;;;12.30;73.84
63493;BME280;49638;47.526;10.028;2023-06-01T03:15:22;91722.66;;;12.31;74.09
63493;BME280;49638;47.526;10.028;2023-06-01T03:18:22;91722.44;;;12.33;74.05
63493;BME280;49638;47.526;10.028;2023-06-01T03:21:22;91719.50;;;12.35;74.16
63493;BME280;49638;47.526;10.028;2023-06-01T03:24:23;91717.34;;;12.26;74.36
63493;BME280;49638;47.526;10.028;2023-06-01T03:27:26;91723.22;;;12.34;74.14
63493;BME280;49638;47.526;10.028;2023-06-01T03:30:26;91725.31;;;12.31;74.41
63493;BME280;49638;47.526;10.028;2023-06-01T03:33:26;91720.81;;;12.32;74.23
63493;BME280;49638;47.526;10.028;2023-06-01T03:36:27;91730.09;;;12.35;74.38
63493;BME280;49638;47.526;10.028;2023-06-01T03:39:27;91729.03;;;12.30;73.94
63493;BME280;49638;47.526;10.028;2023-06-01T03:42:28;91728.16;;;12.25;73.98
63493;BME280;49638;47.526;10.028;2023-06-01T03:45:28;91719.59;;;12.13;73.95
63493;BME280;49638;47.526;10.028;2023-06-01T03:48:28;91719.91;;;12.16;74.22
63493;BME280;49638;47.526;10.028;2023-06-01T03:51:28;91733.75;;;12.28;73.92
63493;BME280;49638;47.526;10.028;2023-06-01T03:54:29;91722.88;;;12.25;74.07
63493;BME280;49638;47.526;10.028;2023-06-01T03:57:29;91728.00;;;12.37;74.29
63493;BME280;49638;47.526;10.028;2023-06-01T04:00:29;91734.34;;;12.36;74.54
63493;BME280;49638;47.526;10.028;2023-06-01T04:03:30;91729.81;;;12.31;75.10
63493;BME280;49638;47.526;10.028;2023-06-01T04:06:30;91728.22;;;12.30;75.29
63493;BME280;49638;47.526;10.028;2023-06-01T04:09:35;91738.63;;;12.37;75.45
63493;BME280;49638;47.526;10.028;2023-06-01T04:12:37;91739.22;;;12.49;nan
63493;BME280;49638;47.526;10.028;2023-06-01T04:15:37;91739.31;;;12.59;75.61
63493;BME280;49638;47.526;10.028;2023-06-01T04:18:37;91740.66;;;12.67;75.58
63493;BME280;49638;47.526;10.028;2023-06-01T04:21:38;91740.88;;;12.97;75.07
63493;BME280;49638;47.526;10.028;2023-06-01T04:24:38;91738.72;;;13.32;74.43
63493;BME280;49638;47.526;10.028;2023-06-01T04:27:43;91734.88;;;13.70;74.63
63493;BME280;49638;47.526;10.028;2023-06-01T04:30:47;91736.31;;;14.24;72.74
63493;BME280;49638;47.526;10.028;2023-06-01T04:33:47;91732.59;;;14.81;71.64
63493;BME280;49638;47.526;10.028;2023-06-01T04:36:56;91738.31;;;15.49;70.88
63493;BME280;49638;47.526;10.028;2023-06-01T04:39:56;91735.94;;;16.07;69.51
63493;BME280;49638;47.526;10.028;2023-06-01T04:42:56;91743.06;;;16.56;68.36
63493;BME280;49638;47.526;10.028;2023-06-01T04:45:57;91729.50;;;16.87;67.64
63493;BME280;49638;47.526;10.028;2023-06-01T04:49:03;91744.13;;;17.24;67.44
63493;BME280;49638;47.526;10.028;2023-06-01T04:52:05;91738.66;;;17.34;67.70
63493;BME280;49638;47.526;10.028;2023-06-01T04:55:06;91744.00;;;17.58;67.51
63493;BME280;49638;47.526;10.028;2023-06-01T04:58:07;91724.00;;;17.80;66.94
63493;BME280;49638;47.526;10.028;2023-06-01T05:01:07;91733.50;;;18.10;65.78
63493;BME280;49638;47.526;10.028;2023-06-01T05:04:07;91722.09;;;18.23;64.99
63493;BME280;49638;47.526;10.028;2023-06-01T05:07:08;91727.25;;;18.38;64.51
63493;BME280;49638;47.526;10.028;2023-06-01T05:10:10;91734.91;;;18.26;64.78
63493;BME280;49638;47.526;10.028;2023-06-01T05:13:10;91727.44;;;18.04;64.35
63493;BME280;49638;47.526;10.028;2023-06-01T05:16:11;91737.13;;;18.19;63.37
63493;BME280;49638;47.526;10.028;2023-06-01T05:19:11;91734.25;;;18.34;62.31
63493;BME280;49638;47.526;10.028;2023-06-01T05:22:12;91727.94;;;18.44;61.78
63493;BME280;49638;47.526;10.028;2023-06-01T05:25:13;91741.41;;;18.77;61.83
63493;BME280;49638;47.526;10.028;2023-06-01T05:28:14;91728.78;;;18.96;61.96
63493;BME280;49638;47.526;10.028;2023-06-01T05:31:14;91727.22;;;19.09;61.75
63493;BME280;49638;47.526;10.028;2023-06-01T05:34:15;91739.38;;;19.34;61.45
63493;BME280;49638;47.526;10.028;2023-06-01T05:37:15;91721.09;;;19.36;61.05
63493;BME280;49638;47.526;10.028;2023-06-01T05:40:16;91726.47;;;19.36;60.94
63493;BME280;49638;47.526;10.028;2023-06-01T05:43:16;91728.25;;;19.41;60.85
63493;BME280;49638;47.526;10.028;2023-06-01T05:46:17;91742.78;;;19.53;60.58
63493;BME280;49638;47.526;10.028;2023-06-01T05:49:17;91745.88;;;19.60;60.56
63493;BME280;49638;47.526;10.028;2023-06-01T05:52:17;91748.63;;;19.55;59.92
63493;BME280;49638;47.526;10.028;2023-06-01T05:55:17;91743.78;;;19.57;59.90
63493;BME280;49638;47.526;10.028;2023-06-01T05:58:18;91739.19;;;19.58;59.48
63493;BME280;49638;47.526;10.028;2023-06-01T06:01:19;91739.78;;;19.55;59.60
63493;BME280;49638;47.526;10.028;2023-06-01T06:04:19;91753.03;;;19.65;60.06
63493;BME280;49638;47.526;10.028;2023-06-01T06:07:20;91751.25;;;19.74;60.39
63493;BME280;49638;47.526;10.028;2023-06-01T06:10:20;91748.38;;;19.84;59.49
63493;BME280;49638;47.526;10.028;2023-06-01T06:13:20;91747.59;;;19.84;58.22
63493;BME280;49638;47.526;10.028;2023-06-01T06:16:21;91751.72;;;19.90;58.06
63493;BME280;49638;47.526;10.028;2023-06-01T06:19:21;91745.19;;;19.96;57.72
63493;BME280;49638;47.526;10.028;2023-06-01T06:22:21;91755.41;;;20.08;57.59
63493;BME280;49638;47.526;10.028;2023-06-01T06:25:21;91744.00;;;19.89;57.33
63493;BME280;49638;47.526;10.028;2023-06-01T06:28:22;91752.34;;;19.87;57.69
63493;BME280;49638;47.526;10.028;2023-06-01T06:31:23;91743.81;;;19.85;57.98
63493;BME280;49638;47.526;10.028;2023-06-01T06:34:23;91759.50;;;19.92;57.96
63493;BME280;49638;47.526;10.028;2023-06-01T06:37:24;91758.13;;;19.94;58.42
63493;BME280;49638;47.526;10.028;2023-06-01T06:40:24;91763.69;;;19.98;58.50
63493;BME280;49638;47.526;10.028;2023-06-01T06:43:25;91753.53;;;19.95;58.13
63493;BME280;49638;47.526;10.028;2023-06-01T06:46:25;91764.53;;;20.07;58.25
63493;BME280;49638;47.526;10.028;2023-06-01T06:49:26;91762.94;;;20.20;58.11
63493;BME280;49638;47.526;10.028;2023-06-01T06:52:26;91766.00;;;20.27;57.83
63493;BME280;49638;47.526;10.028;2023-06-01T06:55:26;91768.88;;;20.30;57.17
63493;BME280;49638;47.526;10.028;2023-06-01T06:58:27;91756.19;;;20.22;57.07
63493;BME280;49638;47.526;10.028;2023-06-01T07:01:27;91766.19;;;20.30;57.11
63493;BME280;49638;47.526;10.028;2023-06-01T07:04:28;91765.78;;;20.37;56.60
63493;BME280;49638;47.526;10.028;2023-06-01T07:07:28;91758.72;;;20.41;56.53
63493;BME280;49638;47.526;10.028;2023-06-01T07:10:28;91771.44;;;20.49;56.00
63493;BME280;49638;47.526;10.028;2023-06-01T07:13:29;91748.81;;;20.42;55.70
63493;BME280;49638;47.526;10.028;2023-06-01T07:16:30;91773.34;;;20.49;55.14
63493;BME280;49638;47.526;10.028;2023-06-01T07:19:30;91756.34;;;20.40;55.08
63493;BME280;49638;47.526;10.028;2023-06-01T07:22:33;91770.94;;;20.47;54.92
63493;BME280;49638;47.526;10.028;2023-06-01T07:25:33;91763.81;;;20.43;54.99
63493;BME280;49638;47.526;10.028;2023-06-01T07:28:33;91760.13;;;20.52;53.91
63493;BME280;49638;47.526;10.028;2023-06-01T07:31:34;91769.78;;;20.53;54.49
63493;BME280;49638;47.526;10.028;2023-06-01T07:34:35;91771.72;;;20.48;53.96
63493;BME280;49638;47.526;10.028;2023-06-01T07:37:35;91768.38;;;20.42;53.73
63493;BME280;49638;47.526;10.028;2023-06-01T07:40:36;91765.97;;;20.41;53.86
63493;BME280;49638;47.526;10.028;2023-06-01T07:43:37;91761.13;;;20.43;54.10
63493;BME280;49638;47.526;10.028;2023-06-01T07:46:38;91769.47;;;20.55;54.26
63493;BME280;49638;47.526;10.028;2023-06-01T07:49:38;91748.59;;;20.52;53.97
63493;BME280;49638;47.526;10.028;2023-06-01T07:52:38;91758.81;;;20.64;54.20
63493;BME280;49638;47.526;10.028;2023-06-01T07:55:39;91757.59;;;20.70;54.02
63493;BME280;49638;47.526;10.028;2023-06-01T07:58:39;91748.84;;;20.64;53.88
63493;BME280;49638;47.526;10.028;2023-06-01T08:01:39;91751.25;;;20.66;54.10
63493;BME280;49638;47.526;10.028;2023-06-01T08:04:39;91748.84;;;20.64;53.99
63493;BME280;49638;47.526;10.028;2023-06-01T08:07:40;91761.56;;;20.72;54.08
63493;BME280;49638;47.526;10.028;2023-06-01T08:10:42;91759.00;;;20.67;54.21
63493;BME280;49638;47.526;10.028;2023-06-01T08:13:44;91759.69;;;20.73;54.30
63493;BME280;49638;47.526;10.028;2023-06-01T08:16:45;91755.38;;;20.72;54.13
63493;BME280;49638;47.526;10.028;2023-06-01T08:19:46;91752.50;;;20.68;53.74
63493;BME280;49638;47.526;10.028;2023-06-01T08:22:48;91758.75;;;20.77;53.93
63493;BME280;49638;47.526;10.028;2023-06-01T08:25:49;91757.97;;;20.77;53.75
63493;BME280;49638;47.526;10.028;2023-06-01T08:28:49;91764.91;;;20.78;53.47
63493;BME280;49638;47.526;10.028;2023-06-01T08:31:52;91753.75;;;20.85;53.26
63493;BME280;49638;47.526;10.028;2023-06-01T08:34:53;91757.53;;;20.84;53.13
63493;BME280;49638;47.526;10.028;2023-06-01T08:37:53;91756.16;;;20.86;53.30
63493;BME280;49638;47.526;10.028;2023-06-01T08:40:54;91757.41;;;20.89;52.98
63493;BME280;49638;47.526;10.028;2023-06-01T08:44:02;91760.09;;;20.89;52.51
63493;BME280;49638;47.526;10.028;2023-06-01T08:47:03;91761.88;;;20.93;53.06
63493;BME280;49638;47.526;10.028;2023-06-01T08:50:04;91759.06;;;20.98;53.16
63493;BME280;49638;47.526;10.028;2023-06-01T08:53:05;91755.72;;;20.93;52.72
63493;BME280;49638;47.526;10.028;2023-06-01T08:56:05;91762.31;;;20.87;53.06
63493;BME280;49638;47.526;10.028;2023-06-01T08:59:06;91756.44;;;20.85;52.90
63493;BME280;49638;47.526;10.028;2023-06-01T09:02:06;91754.06;;;20.83;52.89
63493;BME280;49638;47.526;10.028;2023-06-01T09:05:07;91760.41;;;20.87;53.29
63493;BME280;49638;47.526;10.028;2023-06-01T09:08:08;91754.69;;;20.80;53.14
63493;BME280;49638;47.526;10.028;2023-06-01T09:11:09;91761.75;;;20.76;52.86
63493;BME280;49638;47.526;10.028;2023-06-01T09:14:22;91755.59;;;20.75;51.25
63493;BME280;49638;47.526;10.028;2023-06-01T09:17:23;91755.38;;;20.72;52.87
63493;BME280;49638;47.526;10.028;2023-06-01T09:20:28;91751.81;;;20.76;52.67
63493;BME280;49638;47.526;10.028;2023-06-01T09:23:29;91756.69;;;20.74;53.14
63493;BME280;49638;47.526;10.028;2023-06-01T09:26:30;91751.19;;;20.79;53.26
63493;BME280;49638;47.526;10.028;2023-06-01T09:29:30;91754.44;;;20.90;53.13
63493;BME280;49638;47.526;10.028;2023-06-01T09:32:30;91759.38;;;20.97;53.23
63493;BME280;49638;47.526;10.028;2023-06-01T09:35:42;91751.16;;;20.93;51.67
63493;BME280;49638;47.526;10.028;2023-06-01T09:38:43;91751.78;;;20.99;53.26
63493;BME280;49638;47.526;10.028;2023-06-01T09:41:57;91756.13;;;21.09;51.27
63493;BME280;49638;47.526;10.028;2023-06-01T09:45:34;91749.53;;;21.15;52.13
63493;BME280;49638;47.526;10.028;2023-06-01T09:48:37;91747.97;;;21.14;53.17
63493;BME280;49638;47.526;10.028;2023-06-01T09:51:37;91744.47;;;21.13;53.13
63493;BME280;49638;47.526;10.028;2023-06-01T09:54:42;91742.09;;;21.12;51.97
63493;BME280;49638;47.526;10.028;2023-06-01T09:57:43;91759.13;;;21.07;52.57
63493;BME280;49638;47.526;10.028;2023-06-01T10:00:44;91741.03;;;20.99;52.83
63493;BME280;49638;47.526;10.028;2023-06-01T10:03:47;91735.56;;;21.04;52.43
63493;BME280;49638;47.526;10.028;2023-06-01T10:06:48;91750.72;;;21.00;52.37
63493;BME280;49638;47.526;10.028;2023-06-01T10:09:54;91737.94;;;21.06;52.04
63493;BME280;49638;47.526;10.028;2023-06-01T10:12:55;91740.69;;;21.14;49.39
63493;BME280;49638;47.526;10.028;2023-06-01T10:15:55;91745.69;;;21.07;52.83
63493;BME280;49638;47.526;10.028;2023-06-01T10:18:56;91734.09;;;20.98;52.92
63493;BME280;49638;47.526;10.028;2023-06-01T10:21:57;91741.38;;;20.97;53.12
63493;BME280;49638;47.526;10.028;2023-06-01T10:24:58;91731.66;;;20.88;53.04
63493;BME280;49638;47.526;10.028;2023-06-01T10:28:03;91741.28;;;20.89;52.99
63493;BME280;49638;47.526;10.028;2023-06-01T10:34:43;91725.31;;;20.84;51.41
63493;BME280;49638;47.526;10.028;2023-06-01T10:41:28;91731.66;;;20.88;52.10
63493;BME280;49638;47.526;10.028;2023-06-01T10:47:43;91722.69;;;20.92;53.38
63493;BME280;49638;47.526;10.028;2023-06-01T10:51:19;91719.81;;;20.89;51.48
63493;BME280;49638;47.526;10.028;2023-06-01T10:54:25;91719.00;;;20.88;52.04
63493;BME280;49638;47.526;10.028;2023-06-01T10:57:29;91725.19;;;20.89;53.10
63493;BME280;49638;47.526;10.028;2023-06-01T11:00:38;91718.72;;;20.90;53.02
63493;BME280;49638;47.526;10.028;2023-06-01T11:03:46;91720.13;;;20.87;51.90
63493;BME280;49638;47.526;10.028;2023-06-01T11:06:46;91726.09;;;20.84;53.23
63493;BME280;49638;47.526;10.028;2023-06-01T11:09:47;91714.56;;;20.84;53.20
63493;BME280;49638;47.526;10.028;2023-06-01T11:19:24;91717.19;;;20.97;52.25
63493;BME280;49638;47.526;10.028;2023-06-01T11:22:24;91708.69;;;21.04;53.17
63493;BME280;49638;47.526;10.028;2023-06-01T11:25:26;91704.91;;;21.05;52.97
63493;BME280;49638;47.526;10.028;2023-06-01T11:28:27;91698.44;;;21.06;52.99
63493;BME280;49638;47.526;10.028;2023-06-01T11:31:27;91701.66;;;21.17;52.94
63493;BME280;49638;47.526;10.028;2023-06-01T11:34:38;91695.69;;;21.20;52.39
63493;BME280;49638;47.526;10.028;2023-06-01T11:37:39;91689.38;;;21.24;53.17
63493;BME280;49638;47.526;10.028;2023-06-01T11:40:58;91696.66;;;21.33;51.11
63493;BME280;49638;47.526;10.028;2023-06-01T11:43:58;91686.22;;;21.31;52.82
63493;BME280;49638;47.526;10.028;2023-06-01T11:46:59;91683.75;;;21.35;52.77
63493;BME280;49638;47.526;10.028;2023-06-01T11:49:59;91684.09;;;21.42;52.90
63493;BME280;49638;47.526;10.028;2023-06-01T11:53:00;91691.06;;;21.43;52.85
63493;BME280;49638;47.526;10.028;2023-06-01T11:56:00;91676.38;;;21.49;52.77
63493;BME280;49638;47.526;10.028;2023-06-01T11:59:03;91682.09;;;21.56;53.14
63493;BME280;49638;47.526;10.028;2023-06-01T12:02:22;91671.50;;;21.60;50.59
63493;BME280;49638;47.526;10.028;2023-06-01T12:05:24;91656.09;;;21.43;52.27
63493;BME280;49638;47.526;10.028;2023-06-01T12:08:24;91671.31;;;21.47;52.49
63493;BME280;49638;47.526;10.028;2023-06-01T12:11:26;91661.72;;;21.33;52.19
63493;BME280;49638;47.526;10.028;2023-06-01T12:14:27;91670.81;;;21.37;52.39
63493;BME280;49638;47.526;10.028;2023-06-01T12:20:49;91648.81;;;21.35;52.14
63493;BME280;49638;47.526;10.028;2023-06-01T12:23:50;91662.94;;;21.49;52.12
63493;BME280;49638;47.526;10.028;2023-06-01T12:26:53;91642.81;;;21.38;52.15
63493;BME280;49638;47.526;10.028;2023-06-01T12:29:53;91652.34;;;21.53;51.75
63493;BME280;49638;47.526;10.028;2023-06-01T12:32:55;91647.47;;;21.55;51.78
63493;BME280;49638;47.526;10.028;2023-06-01T12:35:55;91620.22;;;21.47;51.67
63493;BME280;49638;47.526;10.028;2023-06-01T12:38:56;91635.59;;;21.56;51.80
63493;BME280;49638;47.526;10.028;2023-06-01T12:41:57;91636.09;;;21.66;52.12
63493;BME280;49638;47.526;10.028;2023-06-01T12:44:57;91631.19;;;21.68;52.04
63493;BME280;49638;47.526;10.028;2023-06-01T12:47:59;91618.88;;;21.67;52.17
63493;BME280;49638;47.526;10.028;2023-06-01T12:50:59;91626.59;;;21.69;51.78
63493;BME280;49638;47.526;10.028;2023-06-01T12:53:59;91627.22;;;21.66;51.66
63493;BME280;49638;47.526;10.028;2023-06-01T12:57:00;91622.13;;;21.56;51.44
63493;BME280;49638;47.526;10.028;2023-06-01T13:00:00;91631.00;;;21.47;51.62
63493;BME280;49638;47.526;10.028;2023-06-01T13:03:00;91634.13;;;21.41;51.64
63493;BME280;49638;47.526;10.028;2023-06-01T13:06:01;91648.00;;;21.34;51.70
63493;BME280;49638;47.526;10.028;2023-06-01T13:09:01;91650.00;;;21.29;51.75
63493;BME280;49638;47.526;10.028;2023-06-01T13:12:03;91643.00;;;21.19;52.22
63493;BME280;49638;47.526;10.028;2023-06-01T13:15:04;91646.19;;;21.21;52.08
63493;BME280;49638;47.526;10.028;2023-06-01T13:18:04;91636.38;;;21.16;52.10
63493;BME280;49638;47.526;10.028;2023-06-01T13:21:04;91633.53;;;21.21;52.11
63493;BME280;49638;47.526;10.028;2023-06-01T13:24:05;91621.22;;;21.20;52.78
63493;BME280;49638;47.526;10.028;2023-06-01T13:27:06;91611.69;;;21.14;53.13
63493;BME280;49638;47.526;10.028;2023-06-01T13:30:07;91615.97;;;21.15;53.53
63493;BME280;49638;47.526;10.028;2023-06-01T13:33:08;91621.47;;;21.10;54.43
63493;BME280;49638;47.526;10.028;2023-06-01T13:36:08;91625.50;;;20.99;55.64
63493;BME280;49638;47.526;10.028;2023-06-01T13:39:09;91658.22;;;20.92;56.21
63493;BME280;49638;47.526;10.028;2023-06-01T13:42:10;91684.41;;;20.64;56.80
63493;BME280;49638;47.526;10.028;2023-06-01T13:45:11;91699.88;;;19.95;58.91
63493;BME280;49638;47.526;10.028;2023-06-01T13:48:12;91700.06;;;19.29;60.50
63493;BME280;49638;47.526;10.028;2023-06-01T13:51:12;91682.75;;;18.42;62.22
63493;BME280;49638;47.526;10.028;2023-06-01T13:54:12;91683.06;;;17.84;63.32
63493;BME280;49638;47.526;10.028;2023-06-01T13:57:14;91677.56;;;17.27;63.39
63493;BME280;49638;47.526;10.028;2023-06-01T14:00:14;91705.38;;;16.97;63.50
63493;BME280;49638;47.526;10.028;2023-06-01T14:03:15;91689.13;;;16.65;66.46
63493;BME280;49638;47.526;10.028;2023-06-01T14:06:16;91656.53;;;15.99;66.95
63493;BME280;49638;47.526;10.028;2023-06-01T14:09:17;91655.63;;;15.75;68.27
63493;BME280;49638;47.526;10.028;2023-06-01T14:12:17;91679.78;;;15.94;69.23
63493;BME280;49638;47.526;10.028;2023-06-01T14:15:18;91695.03;;;15.83;70.18
63493;BME280;49638;47.526;10.028;2023-06-01T14:18:18;91677.97;;;15.84;71.28
63493;BME280;49638;47.526;10.028;2023-06-01T14:21:18;91685.66;;;15.85;72.14
63493;BME280;49638;47.526;10.028;2023-06-01T14:24:18;91674.44;;;15.94;72.99
63493;BME280;49638;47.526;10.028;2023-06-01T14:27:19;91673.06;;;15.96;74.06
63493;BME280;49638;47.526;10.028;2023-06-01T14:30:20;91662.47;;;15.86;74.40
63493;BME280;49638;47.526;10.028;2023-06-01T14:33:20;91667.78;;;15.91;75.04
63493;BME280;49638;47.526;10.028;2023-06-01T14:36:20;91685.28;;;16.07;74.97
63493;BME280;49638;47.526;10.028;2023-06-01T14:39:21;91684.66;;;16.21;75.03
63493;BME280;49638;47.526;10.028;2023-06-01T14:42:21;91677.94;;;16.23;75.84
63493;BME280;49638;47.526;10.028;2023-06-01T14:45:21;91667.59;;;16.17;76.35
63493;BME280;49638;47.526;10.028;2023-06-01T14:48:23;91689.38;;;16.29;76.98
63493;BME280;49638;47.526;10.028;2023-06-01T14:51:23;91688.59;;;16.28;77.52
63493;BME280;49638;47.526;10.028;2023-06-01T14:54:23;91703.19;;;16.41;76.78
63493;BME280;49638;47.526;10.028;2023-06-01T14:57:24;91694.66;;;16.39;75.52
63493;BME280;49638;47.526;10.028;2023-06-01T15:00:24;91707.97;;;16.39;75.74
63493;BME280;49638;47.526;10.028;2023-06-01T15:03:24;91697.31;;;16.39;74.99
63493;BME280;49638;47.526;10.028;2023-06-01T15:06:25;91683.22;;;16.33;74.53
63493;BME280;49638;47.526;10.028;2023-06-01T15:09:25;91669.31;;;16.37;72.92
63493;BME280;49638;47.526;10.028;2023-06-01T15:12:26;91666.38;;;16.38;72.31
63493;BME280;49638;47.526;10.028;2023-06-01T15:15:26;91682.91;;;16.40;71.20
63493;BME280;49638;47.526;10.028;2023-06-01T15:18:27;91667.72;;;16.41;71.53
63493;BME280;49638;47.526;10.028;2023-06-01T15:21:27;91668.75;;;16.45;71.25
63493;BME280;49638;47.526;10.028;2023-06-01T15:24:27;91658.22;;;16.59;71.55
63493;BME280;49638;47.526;10.028;2023-06-01T15:27:28;91663.50;;;16.64;71.38
63493;BME280;49638;47.526;10.028;2023-06-01T15:30:28;91662.59;;;16.73;72.24
63493;BME280;49638;47.526;10.028;2023-06-01T15:33:31;91670.09;;;16.76;73.14
63493;BME280;49638;47.526;10.028;2023-06-01T15:36:31;91658.63;;;16.76;73.58
63493;BME280;49638;47.526;10.028;2023-06-01T15:39:33;91649.53;;;16.77;73.46
63493;BME280;49638;47.526;10.028;2023-06-01T15:42:35;91649.97;;;16.84;73.50
63493;BME280;49638;47.526;10.028;2023-06-01T15:45:36;91645.78;;;16.78;73.81
63493;BME280;49638;47.526;10.028;2023-06-01T15:48:36;91642.50;;;16.86;74.23
63493;BME280;49638;47.526;10.028;2023-06-01T15:51:39;91634.41;;;16.91;74.51
63493;BME280;49638;47.526;10.028;2023-06-01T15:54:39;91618.94;;;16.93;74.65
63493;BME280;49638;47.526;10.028;2023-06-01T15:57:40;91621.16;;;17.10;74.17
63493;BME280;49638;47.526;10.028;2023-06-01T16:00:40;91622.94;;;17.15;74.07
63493;BME280;49638;47.526;10.028;2023-06-01T16:03:40;91622.22;;;17.33;72.56
63493;BME280;49638;47.526;10.028;2023-06-01T16:06:41;91612.19;;;17.44;71.77
63493;BME280;49638;47.526;10.028;2023-06-01T16:09:41;91617.53;;;17.63;71.57
63493;BME280;49638;47.526;10.028;2023-06-01T16:12:42;91623.34;;;17.70;71.50
63493;BME280;49638;47.526;10.028;2023-06-01T16:15:42;91628.00;;;17.83;71.75
63493;BME280;49638;47.526;10.028;2023-06-01T16:18:43;91627.63;;;17.90;72.18
63493;BME280;49638;47.526;10.028;2023-06-01T16:21:44;91619.91;;;17.88;72.23
63493;BME280;49638;47.526;10.028;2023-06-01T16:24:44;91618.19;;;17.98;71.54
63493;BME280;49638;47.526;10.028;2023-06-01T16:27:44;91616.41;;;18.07;71.08